Time;durP1;ratioP1;P1;durP2;ratioP2;P2;SDS_P1;SDS_P2;PMS_P1;PMS_P2;Temp;Humidity;BMP_temperature;BMP_pressure;BME280_temperature;BME280_humidity;BME280_pressure;Samples;Min_cycle;Max_cycle;Signal;HPM_P1;HPM_P2
2022/05/14 00:00:04;;;;;;;10.93;3.40;;;13.90;99.90;;;;;;5045922;28;20233;-94
2022/05/14 00:02:42;;;;;;;6.70;2.40;;;13.90;99.90;;;;;;5047802;28;20792;-93
2022/05/14 00:05:09;;;;;;;15.07;3.27;;;13.90;99.90;;;;;;5032184;28;20221;-92
2022/05/14 00:07:41;;;;;;;7.00;2.93;;;13.90;99.90;;;;;;5022525;28;20222;-93
2022/05/14 00:10:10;;;;;;;6.83;2.20;;;13.90;99.90;;;;;;5031009;28;20178;-92
2022/05/14 00:15:23;;;;;;;6.50;2.67;;;13.80;99.90;;;;;;5047967;28;20221;-93
2022/05/14 00:17:54;;;;;;;19.63;2.80;;;13.80;99.90;;;;;;5030838;28;20585;-92
2022/05/14 00:20:22;;;;;;;8.77;3.10;;;13.80;99.90;;;;;;5030445;28;20355;-93
2022/05/14 00:22:50;;;;;;;15.73;4.57;;;13.80;99.90;;;;;;5029627;28;20209;-92
2022/05/14 00:25:22;;;;;;;6.77;2.43;;;13.80;99.90;;;;;;5029690;28;25736;-93
2022/05/14 00:27:51;;;;;;;15.50;3.60;;;13.80;99.90;;;;;;5047487;28;20184;-92
2022/05/14 00:30:19;;;;;;;6.13;2.93;;;13.80;99.90;;;;;;5047277;28;20320;-92
2022/05/14 00:32:49;;;;;;;9.53;4.03;;;13.80;99.90;;;;;;5063348;28;20229;-93
2022/05/14 00:35:15;;;;;;;7.37;3.40;;;13.80;99.90;;;;;;5044540;28;20226;-92
2022/05/14 00:38:04;;;;;;;29.90;4.33;;;13.80;99.90;;;;;;5042423;28;20679;-91
2022/05/14 00:40:33;;;;;;;15.10;4.20;;;13.80;99.90;;;;;;5060351;28;20222;-92
2022/05/14 00:42:59;;;;;;;17.40;4.20;;;13.80;99.90;;;;;;5059697;28;20190;-93
2022/05/14 00:45:27;;;;;;;11.53;4.80;;;13.80;99.90;;;;;;5044370;28;20182;-91
2022/05/14 00:47:55;;;;;;;11.50;3.07;;;13.80;99.90;;;;;;5045879;28;20225;-90
2022/05/14 00:50:59;;;;;;;10.07;2.80;;;13.70;99.90;;;;;;5062089;28;20213;-90
2022/05/14 00:53:35;;;;;;;19.27;4.90;;;13.70;99.90;;;;;;4949637;28;20698;-91
2022/05/14 00:56:08;;;;;;;11.10;3.60;;;13.60;99.90;;;;;;5035351;28;20301;-91
2022/05/14 00:59:00;;;;;;;15.77;4.33;;;13.50;99.90;;;;;;5046523;28;20217;-92
2022/05/14 01:01:27;;;;;;;15.13;3.07;;;13.50;99.90;;;;;;5040148;28;20611;-91
2022/05/14 01:03:53;;;;;;;8.57;3.13;;;13.40;99.90;;;;;;5030101;28;20190;-91
2022/05/14 01:06:20;;;;;;;2.77;2.43;;;13.40;99.90;;;;;;5029946;28;20670;-91
2022/05/14 01:08:50;;;;;;;13.27;3.87;;;13.30;99.90;;;;;;5044756;28;20225;-90
2022/05/14 01:11:16;;;;;;;4.20;2.83;;;13.30;99.90;;;;;;5045301;28;20217;-91
2022/05/14 01:13:42;;;;;;;14.00;3.97;;;13.20;99.90;;;;;;5027628;28;20222;-91
2022/05/14 01:16:08;;;;;;;12.90;3.10;;;13.20;99.90;;;;;;5031253;28;20631;-91
2022/05/14 01:18:37;;;;;;;19.60;4.07;;;13.20;99.90;;;;;;5032247;28;20707;-91
2022/05/14 01:21:39;;;;;;;7.13;2.60;;;13.10;99.90;;;;;;5031633;28;20218;-91
2022/05/14 01:27:32;;;;;;;20.70;4.70;;;13.00;99.90;;;;;;5048162;28;20216;-90
2022/05/14 01:29:58;;;;;;;11.27;2.90;;;13.00;99.90;;;;;;5032151;28;20237;-90
2022/05/14 01:32:24;;;;;;;10.60;2.87;;;13.00;99.90;;;;;;5031341;28;20218;-92
2022/05/14 01:34:50;;;;;;;8.10;3.43;;;12.90;99.90;;;;;;5047912;28;20709;-91
2022/05/14 01:37:16;;;;;;;11.80;3.57;;;12.90;99.90;;;;;;5048741;28;20244;-91
2022/05/14 01:39:44;;;;;;;9.43;4.43;;;12.80;99.90;;;;;;5049595;28;20186;-91
2022/05/14 01:42:10;;;;;;;14.57;3.80;;;12.80;99.90;;;;;;5031408;28;20222;-91
2022/05/14 01:44:36;;;;;;;9.27;2.83;;;12.80;99.90;;;;;;5031374;28;20236;-91
2022/05/14 01:47:02;;;;;;;8.77;4.47;;;12.80;99.90;;;;;;5047994;28;20582;-92
2022/05/14 01:49:28;;;;;;;8.17;3.07;;;12.80;99.90;;;;;;5046341;28;20221;-91
2022/05/14 01:51:54;;;;;;;16.47;3.63;;;12.70;99.90;;;;;;5032238;28;20190;-90
2022/05/14 01:54:23;;;;;;;12.60;5.27;;;12.70;99.90;;;;;;5045513;28;20229;-92
2022/05/14 01:56:54;;;;;;;7.90;3.00;;;12.70;99.90;;;;;;5027719;28;20217;-93
2022/05/14 01:59:20;;;;;;;7.97;2.93;;;12.60;99.90;;;;;;5036380;28;20277;-94
2022/05/14 02:01:46;;;;;;;10.10;3.33;;;12.50;99.90;;;;;;5044648;28;20222;-91
2022/05/14 02:04:15;;;;;;;8.60;3.10;;;12.40;99.90;;;;;;5062976;28;20265;-92
2022/05/14 02:06:42;;;;;;;11.57;3.57;;;12.40;99.90;;;;;;5048185;28;20282;-93
2022/05/14 02:09:09;;;;;;;15.70;3.60;;;12.40;99.90;;;;;;5030417;28;20218;-92
2022/05/14 02:11:37;;;;;;;11.70;4.37;;;12.40;99.90;;;;;;5048049;28;20216;-92
2022/05/14 02:14:03;;;;;;;17.47;5.27;;;12.40;99.90;;;;;;5048306;28;20226;-92
2022/05/14 02:16:29;;;;;;;6.50;3.07;;;12.30;99.90;;;;;;5047184;28;20217;-93
2022/05/14 02:18:57;;;;;;;12.07;3.87;;;12.30;99.90;;;;;;5048443;28;20178;-91
2022/05/14 02:21:24;;;;;;;4.57;3.07;;;12.30;99.90;;;;;;5047718;28;20783;-92
2022/05/14 02:23:56;;;;;;;7.40;2.80;;;12.30;99.90;;;;;;5030514;28;20218;-92
2022/05/14 02:26:23;;;;;;;13.97;2.80;;;12.30;99.90;;;;;;5047194;28;20551;-92
2022/05/14 02:28:52;;;;;;;9.47;3.57;;;12.30;99.90;;;;;;5047577;28;20221;-92
2022/05/14 02:31:18;;;;;;;12.27;2.90;;;12.30;99.90;;;;;;5047587;28;20320;-93
2022/05/14 02:33:44;;;;;;;7.33;3.97;;;12.30;99.90;;;;;;5048240;28;20224;-92
2022/05/14 02:36:12;;;;;;;18.00;5.70;;;12.30;99.90;;;;;;5030446;28;20217;-92
2022/05/14 02:38:39;;;;;;;13.60;3.10;;;12.20;99.90;;;;;;5030281;28;20304;-91
2022/05/14 02:41:06;;;;;;;6.07;3.10;;;12.20;99.90;;;;;;5030772;28;20311;-91
2022/05/14 02:43:34;;;;;;;14.40;4.30;;;12.20;99.90;;;;;;5047072;28;21034;-91
2022/05/14 02:46:01;;;;;;;10.63;4.90;;;12.20;99.90;;;;;;5047399;28;20276;-91
2022/05/14 02:48:27;;;;;;;10.67;4.00;;;12.20;99.90;;;;;;5047358;28;21060;-90
2022/05/14 02:50:53;;;;;;;3.17;2.60;;;12.20;99.90;;;;;;5030197;28;20227;-90
2022/05/14 02:53:19;;;;;;;16.33;3.60;;;12.20;99.90;;;;;;5046548;28;20232;-91
2022/05/14 02:55:44;;;;;;;7.90;3.30;;;12.20;99.90;;;;;;5030146;28;20920;-92
2022/05/14 02:59:06;;;;;;;5.00;2.37;;;12.30;99.90;;;;;;5046566;28;20247;-91
2022/05/14 03:00:59;;;;;;;20.57;5.47;;;12.20;99.90;;;;;;5047099;28;20216;-91
2022/05/14 03:03:26;;;;;;;15.67;4.00;;;12.20;99.90;;;;;;5047023;28;20190;-92
2022/05/14 03:05:52;;;;;;;17.43;3.00;;;12.10;99.90;;;;;;5030038;28;20225;-91
2022/05/14 03:08:18;;;;;;;8.40;3.80;;;12.10;99.90;;;;;;5029480;28;21065;-91
2022/05/14 03:10:43;;;;;;;7.37;2.83;;;12.10;99.90;;;;;;5046270;28;20220;-92
2022/05/14 03:13:09;;;;;;;16.23;4.23;;;12.00;99.90;;;;;;5028537;28;20202;-92
2022/05/14 03:15:35;;;;;;;15.77;4.83;;;11.90;99.90;;;;;;5046828;28;20186;-93
2022/05/14 03:18:04;;;;;;;9.17;2.53;;;11.90;99.90;;;;;;5042613;28;20218;-92
2022/05/14 03:20:29;;;;;;;5.87;3.47;;;11.80;99.90;;;;;;5044944;28;20267;-91
2022/05/14 03:22:55;;;;;;;20.20;3.07;;;11.70;99.90;;;;;;5044022;28;20217;-91
2022/05/14 03:25:24;;;;;;;5.60;3.60;;;11.60;99.90;;;;;;5028398;28;20210;-92
2022/05/14 03:27:51;;;;;;;12.83;3.97;;;11.60;99.90;;;;;;5045446;28;20211;-92
2022/05/14 03:30:18;;;;;;;16.27;3.50;;;11.60;99.90;;;;;;5045825;28;20226;-91
2022/05/14 03:32:44;;;;;;;4.00;3.10;;;11.60;99.90;;;;;;5046112;28;20218;-92
2022/05/14 03:35:10;;;;;;;17.97;3.37;;;11.50;99.90;;;;;;5045816;28;20226;-90
2022/05/14 03:37:36;;;;;;;9.93;3.57;;;11.50;99.90;;;;;;5044830;28;20246;-91
2022/05/14 03:40:04;;;;;;;6.27;3.93;;;11.40;99.90;;;;;;5028410;28;20193;-91
2022/05/14 03:42:31;;;;;;;12.33;3.57;;;11.40;99.90;;;;;;5044689;28;20726;-92
2022/05/14 03:44:57;;;;;;;11.67;2.13;;;11.40;99.90;;;;;;5045823;28;20249;-91
2022/05/14 03:47:23;;;;;;;6.47;2.93;;;11.40;99.90;;;;;;5046729;28;20225;-91
2022/05/14 03:49:50;;;;;;;4.33;3.23;;;11.40;99.90;;;;;;5045463;28;20218;-91
2022/05/14 03:52:16;;;;;;;10.70;3.60;;;11.40;99.90;;;;;;5038917;28;20193;-91
2022/05/14 03:54:45;;;;;;;7.40;2.87;;;11.40;99.90;;;;;;5045818;28;20206;-90
2022/05/14 03:57:11;;;;;;;9.80;3.53;;;11.30;99.90;;;;;;5046184;28;20218;-90
2022/05/14 03:59:37;;;;;;;6.67;3.47;;;11.40;99.90;;;;;;5028971;28;20241;-91
2022/05/14 04:02:04;;;;;;;9.97;2.73;;;11.50;99.90;;;;;;5012657;28;20263;-91
2022/05/14 04:04:30;;;;;;;12.37;3.03;;;11.50;99.90;;;;;;5029097;28;20225;-91
2022/05/14 04:06:57;;;;;;;11.43;3.43;;;11.60;99.90;;;;;;5029438;28;20178;-92
2022/05/14 04:09:28;;;;;;;15.07;4.07;;;11.60;99.90;;;;;;5045219;28;20201;-91
2022/05/14 04:11:54;;;;;;;8.73;4.43;;;11.60;99.90;;;;;;5042454;28;20214;-91
2022/05/14 04:14:22;;;;;;;14.73;3.77;;;11.60;99.90;;;;;;5028451;28;20233;-91
2022/05/14 04:16:49;;;;;;;7.77;4.20;;;11.60;99.90;;;;;;5045037;28;20713;-91
2022/05/14 04:19:15;;;;;;;5.37;3.40;;;11.60;99.90;;;;;;5029172;28;20208;-91
2022/05/14 04:21:40;;;;;;;19.03;3.43;;;11.70;99.90;;;;;;5046053;28;20174;-92
2022/05/14 04:24:07;;;;;;;13.63;3.80;;;11.80;99.90;;;;;;5028846;28;20242;-91
2022/05/14 04:26:33;;;;;;;6.43;2.23;;;11.90;99.90;;;;;;5012454;28;20221;-91
2022/05/14 04:28:59;;;;;;;9.47;2.37;;;11.90;99.90;;;;;;5044941;28;20763;-91
2022/05/14 04:31:25;;;;;;;10.77;3.00;;;11.90;99.90;;;;;;5028435;28;20222;-91
2022/05/14 04:33:51;;;;;;;9.87;2.83;;;12.00;99.90;;;;;;5028684;28;20210;-90
2022/05/14 04:36:18;;;;;;;8.37;2.70;;;12.10;99.90;;;;;;5028437;28;20236;-91
2022/05/14 04:38:44;;;;;;;6.60;1.67;;;12.30;99.90;;;;;;5043276;28;21047;-91
2022/05/14 04:41:09;;;;;;;13.50;3.27;;;12.40;99.90;;;;;;5025469;28;20233;-92
2022/05/14 04:43:35;;;;;;;6.20;1.77;;;12.60;99.90;;;;;;5024944;28;20226;-91
2022/05/14 04:46:09;;;;;;;5.57;2.10;;;12.70;99.90;;;;;;5025895;28;20190;-91
2022/05/14 04:48:36;;;;;;;5.37;2.13;;;12.80;99.90;;;;;;5044846;28;20658;-92
2022/05/14 04:51:02;;;;;;;7.53;3.03;;;13.10;99.90;;;;;;5015737;28;20213;-89
2022/05/14 04:53:28;;;;;;;3.70;2.67;;;13.20;99.90;;;;;;5048232;28;21169;-91
2022/05/14 04:55:54;;;;;;;4.30;2.90;;;13.20;99.90;;;;;;5032316;28;20225;-91
2022/05/14 04:58:20;;;;;;;12.57;2.77;;;13.30;99.90;;;;;;5041350;28;20251;-91
2022/05/14 05:00:46;;;;;;;7.00;1.80;;;13.40;99.90;;;;;;5047344;28;20230;-92
2022/05/14 05:03:21;;;;;;;4.47;1.90;;;13.50;99.90;;;;;;5048808;28;20229;-91
2022/05/14 05:05:51;;;;;;;2.70;1.40;;;13.80;99.90;;;;;;5046242;28;20217;-91
2022/05/14 05:08:18;;;;;;;8.73;2.60;;;13.90;99.90;;;;;;5064211;28;20229;-92
2022/05/14 05:10:47;;;;;;;7.57;2.67;;;14.00;99.90;;;;;;5048584;28;20206;-91
2022/05/14 05:13:16;;;;;;;14.93;4.13;;;14.10;99.90;;;;;;5032170;28;20210;-93
2022/05/14 05:15:42;;;;;;;7.17;2.50;;;14.20;99.90;;;;;;5048527;28;20182;-91
2022/05/14 05:18:08;;;;;;;5.40;3.53;;;15.30;99.90;;;;;;5031810;28;20718;-90
2022/05/14 05:20:36;;;;;;;9.63;2.77;;;17.30;99.90;;;;;;5047066;28;20217;-91
2022/05/14 05:23:03;;;;;;;10.50;2.70;;;19.60;99.90;;;;;;5047724;28;20221;-91
2022/05/14 05:25:29;;;;;;;10.30;4.40;;;20.50;99.90;;;;;;5032153;28;20302;-91
2022/05/14 05:27:55;;;;;;;15.03;2.80;;;21.30;99.90;;;;;;5048735;28;20277;-91
2022/05/14 05:30:26;;;;;;;3.73;2.13;;;21.00;99.90;;;;;;5050424;28;20961;-94
2022/05/14 05:32:52;;;;;;;9.77;2.93;;;21.00;99.90;;;;;;5032968;28;21078;-93
2022/05/14 05:35:20;;;;;;;5.97;2.87;;;20.90;99.90;;;;;;5048700;28;20237;-93
2022/05/14 05:37:46;;;;;;;3.53;1.97;;;22.20;99.90;;;;;;5048900;28;20577;-94
2022/05/14 05:40:13;;;;;;;5.30;2.13;;;23.90;99.90;;;;;;5065338;28;20190;-93
2022/05/14 05:42:44;;;;;;;7.83;2.47;;;24.60;99.90;;;;;;5049421;28;20197;-93
2022/05/14 05:45:12;;;;;;;5.73;2.27;;;23.70;99.90;;;;;;5058940;28;20229;-93
2022/05/14 05:47:58;;;;;;;7.70;2.33;;;24.30;99.90;;;;;;5049927;28;20287;-93
2022/05/14 05:50:31;;;;;;;17.23;3.53;;;23.70;99.90;;;;;;5049381;28;20773;-95
2022/05/14 05:52:57;;;;;;;9.67;2.90;;;20.90;99.90;;;;;;5039177;28;20345;-93
2022/05/14 05:58:38;;;;;;;6.80;1.57;;;19.30;99.90;;;;;;5047237;28;20210;-92
2022/05/14 06:01:04;;;;;;;6.83;2.23;;;20.60;99.90;;;;;;5046301;28;20198;-90
2022/05/14 06:03:37;;;;;;;7.17;2.77;;;21.60;99.90;;;;;;5048197;28;20193;-92
2022/05/14 06:06:03;;;;;;;5.97;3.13;;;22.20;99.90;;;;;;5030093;28;20284;-92
2022/05/14 06:08:35;;;;;;;3.47;2.30;;;22.00;99.90;;;;;;5029560;28;20623;-92
2022/05/14 06:11:03;;;;;;;9.03;2.57;;;22.60;99.90;;;;;;5025880;28;20213;-92
2022/05/14 06:13:42;;;;;;;11.07;2.17;;;21.60;99.90;;;;;;5048302;28;20744;-92
2022/05/14 06:16:13;;;;;;;9.03;2.20;;;21.90;99.90;;;;;;5019098;28;20212;-93
2022/05/14 06:19:19;;;;;;;10.80;2.30;;;22.10;99.90;;;;;;5033510;28;20289;-94
2022/05/14 06:22:40;;;;;;;;;;;;;;;;;;;;;
2022/05/14 06:26:22;;;;;;;12.77;2.07;;;24.40;99.90;;;;;;4958525;28;20280;-96
2022/05/14 06:29:35;;;;;;;6.63;2.30;;;25.10;99.90;;;;;;5013405;28;20252;-96
2022/05/14 06:32:19;;;;;;;6.73;2.13;;;24.70;99.90;;;;;;4985374;28;20238;-95
2022/05/14 06:34:51;;;;;;;4.55;1.77;;;24.50;99.90;;;;;;4988964;28;20722;-95
2022/05/14 06:37:31;;;;;;;8.30;1.98;;;24.10;99.90;;;;;;5003167;28;21231;-96
2022/05/14 06:40:11;;;;;;;4.80;2.22;;;24.20;99.90;;;;;;5013938;28;20206;-96
2022/05/14 06:43:34;;;;;;;;;;;;;;;;;;;;;
2022/05/14 06:46:25;;;;;;;5.97;1.80;;;23.90;99.90;;;;;;4923168;28;20226;-95
2022/05/14 06:48:53;;;;;;;6.13;2.35;;;25.80;99.90;;;;;;4994655;28;20674;-95
2022/05/14 06:51:56;;;;;;;10.93;3.10;;;26.40;99.90;;;;;;4941553;28;20290;-96
2022/05/14 06:54:41;;;;;;;7.63;2.55;;;26.50;99.90;;;;;;4968196;28;20232;-96
2022/05/14 06:57:26;;;;;;;10.38;2.35;;;25.60;99.90;;;;;;5012286;28;20195;-96
2022/05/14 07:00:27;;;;;;;6.97;2.55;;;25.50;99.90;;;;;;5019494;28;20266;-96
2022/05/14 07:06:38;;;;;;;5.30;2.67;;;25.70;99.90;;;;;;5057884;28;20309;-96
2022/05/14 07:09:41;;;;;;;9.00;2.20;;;26.00;99.90;;;;;;5026514;28;21081;-96
2022/05/14 07:12:17;;;;;;;8.40;2.15;;;25.40;99.90;;;;;;5050150;28;20217;-96
2022/05/14 07:14:49;;;;;;;8.13;2.88;;;26.50;99.90;;;;;;5047263;28;20229;-95
2022/05/14 07:17:18;;;;;;;6.25;2.15;;;26.60;99.90;;;;;;5047981;28;20237;-95
2022/05/14 07:19:44;;;;;;;5.53;2.17;;;26.20;99.90;;;;;;5049913;28;20202;-94
2022/05/14 07:22:15;;;;;;;4.55;2.10;;;26.10;99.90;;;;;;5030273;28;20178;-95
2022/05/14 07:24:45;;;;;;;5.25;2.28;;;25.90;99.90;;;;;;5046043;28;20217;-94
2022/05/14 07:27:17;;;;;;;7.63;1.92;;;26.60;99.90;;;;;;5031670;28;20218;-95
2022/05/14 07:29:47;;;;;;;6.07;2.42;;;25.10;99.90;;;;;;5056481;28;20229;-96
2022/05/14 07:32:21;;;;;;;3.90;1.85;;;26.00;99.90;;;;;;5049432;28;20213;-96
2022/05/14 07:34:50;;;;;;;9.00;2.58;;;25.80;99.90;;;;;;5048952;28;20221;-93
2022/05/14 07:37:33;;;;;;;7.63;2.90;;;24.60;99.90;;;;;;5047965;28;20204;-94
2022/05/14 07:40:02;;;;;;;4.63;1.90;;;24.60;99.90;;;;;;5050518;28;20564;-94
2022/05/14 07:42:51;;;;;;;8.02;1.98;;;24.70;99.90;;;;;;5047462;28;20205;-95
2022/05/14 07:45:29;;;;;;;6.72;2.17;;;25.10;99.90;;;;;;5035621;28;20234;-95
2022/05/14 07:47:57;;;;;;;7.78;2.10;;;25.50;99.90;;;;;;5064000;28;20213;-95
2022/05/14 07:50:23;;;;;;;5.60;1.98;;;24.50;99.90;;;;;;5049131;28;20210;-95
2022/05/14 07:52:51;;;;;;;6.43;2.22;;;24.40;99.90;;;;;;5049115;28;20262;-94
2022/05/14 07:55:17;;;;;;;4.13;2.38;;;25.70;99.90;;;;;;5050828;28;20221;-94
2022/05/14 07:57:43;;;;;;;5.65;1.75;;;26.90;99.90;;;;;;5050950;28;20209;-95
2022/05/14 08:00:11;;;;;;;6.55;2.55;;;25.10;99.90;;;;;;5049931;28;20241;-94
2022/05/14 08:02:37;;;;;;;6.93;2.20;;;25.20;99.90;;;;;;5060620;28;20226;-92
2022/05/14 08:05:15;;;;;;;9.52;2.53;;;26.10;99.90;;;;;;5064391;28;21059;-94
2022/05/14 08:07:44;;;;;;;5.10;2.00;;;26.90;99.90;;;;;;5048028;28;20210;-93
2022/05/14 08:10:17;;;;;;;7.85;2.17;;;26.70;99.90;;;;;;5039086;28;20209;-93
2022/05/14 08:12:50;;;;;;;7.38;2.67;;;26.20;99.90;;;;;;5057375;28;20277;-95
2022/05/14 08:15:19;;;;;;;7.68;3.05;;;24.50;99.90;;;;;;5029536;28;20240;-94
2022/05/14 08:17:45;;;;;;;5.15;2.55;;;26.10;99.90;;;;;;5051362;28;20671;-93
2022/05/14 08:20:13;;;;;;;10.40;2.72;;;28.40;99.90;;;;;;5049907;28;20247;-94
2022/05/14 08:25:24;;;;;;;9.18;2.42;;;25.40;99.90;;;;;;5054783;28;20201;-93
2022/05/14 08:27:49;;;;;;;3.28;2.20;;;26.30;99.90;;;;;;5039338;28;20188;-93
2022/05/14 08:30:19;;;;;;;5.47;2.42;;;26.10;99.90;;;;;;5040869;28;20175;-91
2022/05/14 08:36:58;;;;;;;9.55;2.50;;;25.50;99.90;;;;;;5056823;28;20228;-93
2022/05/14 08:39:25;;;;;;;7.15;2.22;;;26.50;99.90;;;;;;5056793;28;20665;-93
2022/05/14 08:41:52;;;;;;;7.07;2.85;;;25.70;99.90;;;;;;5056898;28;20221;-90
2022/05/14 08:44:26;;;;;;;7.50;2.33;;;26.00;99.90;;;;;;5056940;28;20273;-93
2022/05/14 08:47:03;;;;;;;9.23;2.35;;;26.70;99.90;;;;;;5055717;28;20225;-93
2022/05/14 08:49:46;;;;;;;10.52;2.88;;;28.20;99.90;;;;;;5053818;28;20301;-92
2022/05/14 08:52:23;;;;;;;6.43;2.58;;;26.40;99.90;;;;;;5055104;28;20311;-94
2022/05/14 08:55:04;;;;;;;4.57;1.88;;;27.50;99.90;;;;;;5054271;28;20228;-95
2022/05/14 08:57:55;;;;;;;4.28;2.35;;;26.80;99.90;;;;;;5051952;28;20247;-94
2022/05/14 09:00:22;;;;;;;9.70;2.20;;;28.50;99.90;;;;;;5047521;28;20234;-93
2022/05/14 09:02:51;;;;;;;6.45;2.22;;;28.70;99.90;;;;;;5029882;28;20222;-93
2022/05/14 09:05:23;;;;;;;6.32;2.63;;;28.10;99.90;;;;;;5056561;28;20257;-93
2022/05/14 09:08:01;;;;;;;9.75;2.50;;;28.50;99.00;;;;;;5054580;28;20565;-94
2022/05/14 09:10:34;;;;;;;7.88;2.50;;;27.20;99.90;;;;;;5023491;28;20218;-92
2022/05/14 09:13:12;;;;;;;9.00;2.40;;;25.80;99.90;;;;;;5055113;28;20173;-93
2022/05/14 09:15:46;;;;;;;10.93;3.00;;;25.10;99.90;;;;;;5052804;28;20679;-95
2022/05/14 09:18:24;;;;;;;9.95;3.65;;;25.70;99.90;;;;;;5036638;28;20708;-93
2022/05/14 09:21:01;;;;;;;8.52;3.38;;;26.10;99.90;;;;;;5041955;28;20209;-94
2022/05/14 09:23:49;;;;;;;5.85;2.55;;;26.00;99.90;;;;;;5050623;28;20673;-93
2022/05/14 09:26:24;;;;;;;7.15;2.50;;;25.10;99.90;;;;;;5065920;28;20271;-92
2022/05/14 09:28:53;;;;;;;12.77;2.58;;;24.80;99.90;;;;;;5050761;28;20224;-93
2022/05/14 09:31:39;;;;;;;8.93;2.40;;;25.40;99.90;;;;;;5069427;28;20225;-94
2022/05/14 09:34:13;;;;;;;8.65;2.28;;;26.50;99.90;;;;;;5067001;28;20206;-94
2022/05/14 09:36:39;;;;;;;7.78;2.78;;;25.20;99.90;;;;;;5051867;28;20214;-94
2022/05/14 09:39:25;;;;;;;14.77;6.22;;;25.50;99.90;;;;;;5052091;28;20300;-94
2022/05/14 09:41:56;;;;;;;13.48;3.30;;;25.70;99.90;;;;;;5049861;28;20227;-93
2022/05/14 09:44:45;;;;;;;7.70;2.95;;;24.60;99.90;;;;;;5051855;28;20221;-94
2022/05/14 09:47:15;;;;;;;8.48;3.17;;;23.60;99.90;;;;;;5031776;28;20218;-94
2022/05/14 09:49:52;;;;;;;8.95;2.70;;;23.50;99.90;;;;;;5059862;28;20210;-94
2022/05/14 09:52:24;;;;;;;8.55;2.92;;;23.80;99.90;;;;;;5043382;28;20214;-92
2022/05/14 09:54:52;;;;;;;10.15;2.60;;;23.90;99.90;;;;;;5061710;28;20194;-93
2022/05/14 09:57:45;;;;;;;5.65;2.50;;;23.60;99.90;;;;;;5065091;28;20229;-94
2022/05/14 10:00:21;;;;;;;8.43;3.25;;;23.90;99.90;;;;;;5048206;28;20242;-94
2022/05/14 10:03:26;;;;;;;6.60;1.95;;;23.20;99.90;;;;;;5044690;28;20244;-95
2022/05/14 10:06:06;;;;;;;8.07;2.63;;;23.50;99.90;;;;;;5051076;28;20613;-93
2022/05/14 10:08:42;;;;;;;7.43;2.80;;;24.30;99.90;;;;;;5048582;28;20252;-93
2022/05/14 10:11:19;;;;;;;8.80;3.30;;;24.80;99.90;;;;;;5049025;28;20247;-93
2022/05/14 10:14:03;;;;;;;6.47;2.55;;;23.00;99.90;;;;;;5050321;28;20225;-94
2022/05/14 10:16:38;;;;;;;4.72;1.92;;;22.20;99.90;;;;;;5040669;28;20229;-93
2022/05/14 10:19:23;;;;;;;9.38;3.38;;;23.40;99.90;;;;;;5048708;28;20227;-93
2022/05/14 10:21:57;;;;;;;7.10;2.47;;;23.80;99.90;;;;;;5051520;28;20261;-94
2022/05/14 10:27:56;;;;;;;9.18;2.75;;;24.10;99.90;;;;;;5050345;28;20558;-94
2022/05/14 10:30:33;;;;;;;16.58;3.22;;;25.20;99.90;;;;;;5064442;28;20663;-94
2022/05/14 10:33:06;;;;;;;13.63;2.72;;;25.30;99.90;;;;;;5051277;28;20213;-94
2022/05/14 10:35:47;;;;;;;7.57;2.88;;;26.10;99.90;;;;;;5044181;28;20222;-92
2022/05/14 10:38:46;;;;;;;7.32;2.67;;;26.30;99.90;;;;;;5064064;28;20218;-94
2022/05/14 10:41:44;;;;;;;9.73;2.70;;;25.50;99.90;;;;;;5046721;28;20252;-94
2022/05/14 10:44:30;;;;;;;5.57;2.50;;;25.60;99.90;;;;;;5036591;28;20577;-94
2022/05/14 10:47:03;;;;;;;5.60;2.38;;;25.00;99.90;;;;;;5036118;28;20658;-94
2022/05/14 10:49:44;;;;;;;11.02;3.42;;;24.80;99.90;;;;;;5050640;28;20229;-94
2022/05/14 10:52:15;;;;;;;9.70;2.55;;;24.90;99.90;;;;;;5047249;28;20233;-94
2022/05/14 10:54:43;;;;;;;9.68;3.08;;;23.50;99.90;;;;;;5047886;28;20693;-93
2022/05/14 10:57:15;;;;;;;9.57;2.95;;;23.60;99.90;;;;;;5046463;28;20218;-91
2022/05/14 10:59:48;;;;;;;11.50;2.55;;;24.00;99.90;;;;;;5045737;28;20246;-92
2022/05/14 11:02:33;;;;;;;7.45;3.40;;;23.70;99.90;;;;;;5046930;28;20256;-93
2022/05/14 11:05:00;;;;;;;10.50;2.80;;;23.90;99.90;;;;;;5038435;28;20225;-92
2022/05/14 11:07:37;;;;;;;12.15;3.33;;;24.00;99.90;;;;;;5030158;28;20213;-92
2022/05/14 11:10:29;;;;;;;6.40;2.35;;;24.10;99.90;;;;;;5062692;28;20182;-93
2022/05/14 11:12:56;;;;;;;8.50;2.35;;;23.70;99.90;;;;;;5044327;28;20272;-93
2022/05/14 11:15:28;;;;;;;14.10;3.22;;;23.30;99.90;;;;;;5045861;28;20214;-91
2022/05/14 11:18:09;;;;;;;9.38;3.22;;;23.20;99.90;;;;;;5046269;28;20582;-94
2022/05/14 11:20:37;;;;;;;13.45;2.85;;;23.20;99.90;;;;;;5046518;28;20242;-94
2022/05/14 11:23:08;;;;;;;10.30;2.97;;;22.40;99.90;;;;;;5045809;28;20329;-95
2022/05/14 11:25:33;;;;;;;10.05;3.25;;;22.70;99.90;;;;;;5046970;28;20217;-94
2022/05/14 11:28:11;;;;;;;7.47;2.45;;;22.60;99.90;;;;;;5046118;28;20194;-92
2022/05/14 11:30:49;;;;;;;15.57;2.95;;;22.50;99.90;;;;;;5046695;28;20819;-90
2022/05/14 11:33:31;;;;;;;7.68;2.30;;;22.20;99.90;;;;;;5045347;28;20229;-91
2022/05/14 11:36:01;;;;;;;9.43;2.38;;;22.00;99.90;;;;;;5044927;28;20309;-92
2022/05/14 11:38:30;;;;;;;13.48;2.95;;;22.20;99.90;;;;;;5045512;28;20299;-92
2022/05/14 11:41:04;;;;;;;5.90;2.25;;;22.20;99.90;;;;;;5062508;28;20218;-92
2022/05/14 11:43:37;;;;;;;5.18;2.45;;;21.50;99.90;;;;;;5045084;28;20236;-92
2022/05/14 11:46:09;;;;;;;9.45;2.55;;;21.60;99.90;;;;;;5045742;28;20188;-92
2022/05/14 11:48:58;;;;;;;12.70;3.30;;;21.90;99.90;;;;;;5046148;28;20202;-90
2022/05/14 11:51:42;;;;;;;12.48;2.35;;;21.70;99.90;;;;;;5045663;28;20287;-91
2022/05/14 11:54:24;;;;;;;8.97;2.73;;;21.70;99.90;;;;;;5044502;28;20312;-92
2022/05/14 11:57:16;;;;;;;11.40;2.83;;;21.60;99.90;;;;;;5044843;28;20313;-91
2022/05/14 12:00:08;;;;;;;9.53;2.87;;;21.20;99.90;;;;;;5028214;28;20226;-92
2022/05/14 12:02:58;;;;;;;8.33;2.17;;;21.60;99.90;;;;;;5046104;28;20264;-91
2022/05/14 12:05:29;;;;;;;13.57;2.73;;;21.40;99.90;;;;;;5045882;28;20217;-91
2022/05/14 12:08:01;;;;;;;10.03;2.57;;;21.40;99.90;;;;;;5045713;28;20272;-93
2022/05/14 12:10:43;;;;;;;5.57;2.63;;;21.60;99.90;;;;;;5046193;28;20232;-94
2022/05/14 12:13:21;;;;;;;7.97;2.47;;;21.30;99.90;;;;;;5046182;28;20216;-92
2022/05/14 12:15:53;;;;;;;17.70;3.17;;;21.10;99.90;;;;;;5046394;28;20259;-93
2022/05/14 12:18:19;;;;;;;7.50;2.80;;;21.20;99.90;;;;;;5044271;28;20251;-92
2022/05/14 12:20:55;;;;;;;6.73;2.13;;;21.40;99.90;;;;;;5028387;28;20252;-92
2022/05/14 12:23:42;;;;;;;10.93;2.57;;;21.30;99.90;;;;;;5044380;28;20251;-91
2022/05/14 12:26:26;;;;;;;9.17;2.63;;;21.10;99.90;;;;;;5044178;28;20279;-91
2022/05/14 12:28:54;;;;;;;8.97;3.33;;;21.20;99.90;;;;;;5044610;28;20213;-92
2022/05/14 12:34:14;;;;;;;7.53;2.80;;;20.80;99.90;;;;;;5045638;28;20256;-93
2022/05/14 12:36:44;;;;;;;6.23;2.70;;;20.90;99.90;;;;;;5045145;28;20192;-90
2022/05/14 12:39:17;;;;;;;10.30;2.53;;;20.50;99.90;;;;;;5044654;28;20217;-91
2022/05/14 12:41:46;;;;;;;8.60;3.20;;;20.60;99.90;;;;;;5044615;28;20320;-92
2022/05/14 12:44:16;;;;;;;10.77;2.73;;;20.80;99.90;;;;;;5044283;28;20226;-91
2022/05/14 12:46:45;;;;;;;7.70;2.77;;;20.90;99.90;;;;;;5044964;28;20266;-91
2022/05/14 12:49:19;;;;;;;8.47;3.03;;;20.80;99.90;;;;;;5044080;28;20202;-91
2022/05/14 12:52:04;;;;;;;12.00;3.37;;;20.70;99.90;;;;;;5061868;28;20529;-91
2022/05/14 12:54:33;;;;;;;7.63;2.73;;;20.70;99.90;;;;;;5046033;28;20233;-93
2022/05/14 12:57:09;;;;;;;7.23;2.60;;;20.90;99.90;;;;;;5044539;28;20264;-92
2022/05/14 12:59:36;;;;;;;5.87;2.80;;;20.70;99.90;;;;;;5045557;28;20234;-93
2022/05/14 13:02:28;;;;;;;3.47;1.73;;;20.60;99.90;;;;;;5012981;28;20210;-90
2022/05/14 13:05:11;;;;;;;9.27;2.53;;;20.60;99.90;;;;;;5044733;28;20309;-91
2022/05/14 13:07:51;;;;;;;12.73;3.67;;;20.40;99.90;;;;;;5044988;28;20214;-90
2022/05/14 13:10:21;;;;;;;6.73;2.37;;;20.50;99.90;;;;;;5046227;28;20221;-91
2022/05/14 13:12:55;;;;;;;4.47;1.90;;;20.70;99.90;;;;;;5048984;28;20253;-90
2022/05/14 13:15:40;;;;;;;6.23;2.73;;;20.70;99.90;;;;;;5048771;28;20222;-91
2022/05/14 13:18:25;;;;;;;10.40;3.13;;;20.50;99.90;;;;;;5049638;28;20332;-91
2022/05/14 13:21:17;;;;;;;11.20;2.60;;;20.40;99.90;;;;;;5049157;28;20209;-90
2022/05/14 13:23:52;;;;;;;7.20;3.40;;;20.40;99.90;;;;;;5045906;28;20245;-92
2022/05/14 13:26:48;;;;;;;6.90;2.03;;;20.40;99.90;;;;;;5049708;28;20678;-91
2022/05/14 13:29:25;;;;;;;9.40;3.20;;;20.20;99.90;;;;;;5035241;28;20241;-91
2022/05/14 13:32:04;;;;;;;10.57;2.73;;;20.50;99.90;;;;;;5048425;28;20216;-93
2022/05/14 13:37:21;;;;;;;11.07;3.10;;;20.60;99.90;;;;;;5049647;28;20297;-92
2022/05/14 13:40:09;;;;;;;6.77;1.97;;;20.70;99.90;;;;;;5046946;28;20182;-92
2022/05/14 13:42:59;;;;;;;10.33;2.70;;;20.50;99.90;;;;;;5047334;28;20245;-92
2022/05/14 13:45:33;;;;;;;7.90;3.03;;;20.40;99.90;;;;;;5047720;28;20821;-94